createdAt,value
2023-03-31T00:00:32.169Z,65.21
2023-03-31T00:01:37.433Z,65.00
2023-03-31T00:02:29.542Z,64.90
2023-03-31T00:03:21.910Z,65.20
2023-03-31T00:04:14.572Z,65.05
2023-03-31T00:05:06.653Z,65.45
2023-03-31T00:05:58.913Z,65.65
2023-03-31T00:06:51.551Z,65.62
2023-03-31T00:07:43.742Z,65.52
2023-03-31T00:08:35.863Z,65.47
2023-03-31T00:09:11.576Z,65.74
2023-03-31T00:10:17.109Z,65.80
2023-03-31T00:11:10.583Z,65.84
2023-03-31T00:12:02.578Z,65.88
2023-03-31T00:12:54.551Z,66.24
2023-03-31T00:13:46.391Z,66.61
2023-03-31T00:14:31.197Z,66.57
2023-03-31T00:15:23.054Z,66.70
2023-03-31T00:16:16.040Z,66.29
2023-03-31T00:17:08.086Z,66.93
2023-03-31T00:17:59.957Z,67.36
2023-03-31T00:18:51.758Z,67.24
2023-03-31T00:19:43.667Z,67.57
2023-03-31T00:20:35.472Z,67.89
2023-03-31T00:21:27.394Z,68.06
2023-03-31T00:22:20.563Z,68.13
2023-03-31T00:23:12.384Z,68.23
2023-03-31T00:23:53.076Z,68.00
2023-03-31T00:24:45.056Z,68.17
2023-03-31T00:25:37.097Z,68.44
2023-03-31T00:26:29.130Z,69.04
2023-03-31T00:27:21.143Z,68.97
2023-03-31T00:28:13.002Z,68.93
2023-03-31T00:29:04.940Z,69.18
2023-03-31T00:29:56.833Z,68.84
2023-03-31T00:30:48.665Z,68.70
2023-03-31T00:31:40.599Z,68.51
2023-03-31T00:32:32.484Z,68.50
2023-03-31T00:33:24.426Z,68.77
2023-03-31T00:34:16.294Z,69.01
2023-03-31T00:35:08.076Z,68.95
2023-03-31T00:36:00.017Z,68.78
2023-03-31T00:36:51.949Z,68.97
2023-03-31T00:37:32.498Z,68.98
2023-03-31T00:38:24.326Z,69.05
2023-03-31T00:39:16.049Z,69.00
2023-03-31T00:40:07.860Z,68.93
2023-03-31T00:40:59.551Z,68.99
2023-03-31T00:41:51.392Z,69.18
2023-03-31T00:42:43.174Z,68.71
2023-03-31T00:43:35.099Z,69.19
2023-03-31T00:44:26.924Z,69.36
2023-03-31T00:45:18.917Z,69.40
2023-03-31T00:46:10.924Z,69.63
2023-03-31T00:47:02.827Z,69.71
2023-03-31T00:47:54.771Z,69.36
2023-03-31T00:48:46.651Z,69.37
2023-03-31T00:49:38.418Z,69.32
2023-03-31T00:50:30.171Z,69.32
2023-03-31T00:51:21.995Z,69.35
2023-03-31T00:52:13.759Z,69.33
2023-03-31T00:53:05.430Z,69.29
2023-03-31T00:53:57.341Z,69.31
2023-03-31T00:54:49.227Z,69.23
2023-03-31T00:55:41.268Z,69.37
2023-03-31T00:56:33.116Z,69.63
2023-03-31T00:57:25.125Z,69.74
2023-03-31T00:58:17.175Z,69.71
2023-03-31T00:59:09.066Z,69.64
2023-03-31T01:00:00.878Z,69.64
2023-03-31T01:00:52.897Z,69.64
2023-03-31T01:01:45.022Z,69.54
2023-03-31T01:02:34.233Z,69.39
2023-03-31T01:03:26.200Z,69.57
2023-03-31T01:04:18.012Z,69.27
2023-03-31T01:05:09.926Z,69.28
2023-03-31T01:06:01.776Z,69.06
2023-03-31T01:06:53.718Z,69.10
2023-03-31T01:07:39.800Z,68.90
2023-03-31T01:08:31.573Z,68.92
2023-03-31T01:09:23.504Z,68.86
2023-03-31T01:10:15.296Z,68.70
2023-03-31T01:11:07.064Z,68.66
2023-03-31T01:11:59.039Z,68.78
2023-03-31T01:12:50.965Z,68.67
2023-03-31T01:13:39.486Z,68.51
2023-03-31T01:14:31.306Z,68.43
2023-03-31T01:15:23.406Z,68.36
2023-03-31T01:16:15.262Z,68.41
2023-03-31T01:17:07.226Z,68.39
2023-03-31T01:17:59.269Z,68.38
2023-03-31T01:18:51.181Z,68.20
2023-03-31T01:19:39.888Z,68.08
2023-03-31T01:20:14.969Z,68.12
2023-03-31T01:21:06.854Z,68.05
2023-03-31T01:21:58.794Z,67.94
2023-03-31T01:22:50.614Z,67.86
2023-03-31T01:23:42.522Z,67.81
2023-03-31T01:24:34.556Z,67.97
2023-03-31T01:25:26.364Z,67.92
2023-03-31T01:26:00.933Z,67.90
2023-03-31T01:26:41.651Z,68.01
2023-03-31T01:27:22.232Z,68.02
2023-03-31T01:28:16.284Z,67.93
2023-03-31T01:29:08.285Z,68.05
2023-03-31T01:30:00.190Z,68.19
2023-03-31T01:30:52.162Z,68.24
2023-03-31T01:31:37.184Z,68.36
2023-03-31T01:32:29.251Z,68.17
2023-03-31T01:33:21.147Z,68.02
2023-03-31T01:34:13.053Z,68.10
2023-03-31T01:35:04.992Z,68.16
2023-03-31T01:35:57.031Z,68.15
2023-03-31T01:36:48.739Z,67.95
2023-03-31T01:37:40.538Z,67.80
2023-03-31T01:38:21.209Z,67.75
2023-03-31T01:39:06.857Z,67.73
2023-03-31T01:39:58.701Z,67.71
2023-03-31T01:40:50.373Z,67.65
2023-03-31T01:41:42.205Z,67.62
2023-03-31T01:42:34.080Z,67.68
2023-03-31T01:43:25.964Z,67.73
2023-03-31T01:44:17.836Z,67.71
2023-03-31T01:45:09.703Z,67.75
2023-03-31T01:46:01.518Z,67.72
2023-03-31T01:46:52.252Z,67.67
2023-03-31T01:47:44.149Z,67.58
2023-03-31T01:48:35.834Z,67.52
2023-03-31T01:49:27.606Z,67.54
2023-03-31T01:50:19.421Z,67.49
2023-03-31T01:51:11.207Z,67.45
2023-03-31T01:52:03.021Z,67.43
2023-03-31T01:52:55.092Z,67.36
2023-03-31T01:53:46.986Z,67.40
2023-03-31T01:54:38.861Z,67.40
2023-03-31T01:55:30.801Z,67.31
2023-03-31T01:56:22.633Z,67.42
2023-03-31T01:57:15.595Z,67.45
2023-03-31T01:57:56.123Z,67.41
2023-03-31T01:58:37.436Z,67.44
2023-03-31T01:59:29.269Z,67.46
2023-03-31T02:00:21.062Z,67.21
2023-03-31T02:01:12.881Z,67.09
2023-03-31T02:02:04.613Z,67.05
2023-03-31T02:02:51.604Z,66.90
2023-03-31T02:03:32.433Z,66.76
2023-03-31T02:04:23.952Z,66.72
2023-03-31T02:05:15.846Z,66.70
2023-03-31T02:06:08.018Z,66.66
2023-03-31T02:06:59.988Z,66.84
2023-03-31T02:07:51.838Z,66.71
2023-03-31T02:08:43.724Z,67.01
2023-03-31T02:09:35.636Z,67.30
2023-03-31T02:10:20.247Z,67.31
2023-03-31T02:11:12.139Z,67.25
2023-03-31T02:12:04.020Z,67.19
2023-03-31T02:12:55.882Z,67.06
2023-03-31T02:13:47.824Z,66.97
2023-03-31T02:14:39.605Z,66.88
2023-03-31T02:15:31.680Z,67.03
2023-03-31T02:16:23.860Z,66.88
2023-03-31T02:17:15.631Z,67.04
2023-03-31T02:18:07.462Z,66.41
2023-03-31T02:18:59.367Z,66.32
2023-03-31T02:19:51.210Z,66.29
2023-03-31T02:20:43.036Z,66.11
2023-03-31T02:21:34.832Z,66.06
2023-03-31T02:22:26.623Z,66.03
2023-03-31T02:23:18.481Z,66.07
2023-03-31T02:24:10.364Z,66.05
2023-03-31T02:25:02.259Z,65.97
2023-03-31T02:25:54.180Z,65.97
2023-03-31T02:26:46.003Z,66.08
2023-03-31T02:27:37.681Z,66.03
2023-03-31T02:28:29.694Z,66.15
2023-03-31T02:29:21.575Z,66.11
2023-03-31T02:30:13.451Z,66.12
2023-03-31T02:31:05.500Z,66.01
2023-03-31T02:31:57.450Z,66.07
2023-03-31T02:32:49.376Z,65.99
2023-03-31T02:33:41.411Z,65.89
2023-03-31T02:34:33.292Z,65.81
2023-03-31T02:35:25.233Z,65.68
2023-03-31T02:36:17.222Z,65.65
2023-03-31T02:36:54.383Z,65.75
2023-03-31T02:37:46.156Z,65.76
2023-03-31T02:38:38.201Z,65.79
2023-03-31T02:39:29.959Z,65.76
2023-03-31T02:40:21.888Z,65.74
2023-03-31T02:41:13.770Z,65.66
2023-03-31T02:42:05.673Z,65.71
2023-03-31T02:42:57.492Z,65.68
2023-03-31T02:43:49.362Z,65.62
2023-03-31T02:44:41.446Z,65.55
2023-03-31T02:45:33.238Z,65.55
2023-03-31T02:46:25.278Z,65.45
2023-03-31T02:47:17.236Z,65.48
2023-03-31T02:48:01.737Z,65.43
2023-03-31T02:48:53.691Z,65.53
2023-03-31T02:49:45.605Z,65.37
2023-03-31T02:50:37.478Z,65.25
2023-03-31T02:51:30.484Z,65.37
2023-03-31T02:52:22.477Z,65.38
2023-03-31T02:53:14.205Z,65.36
2023-03-31T02:54:05.948Z,65.35
2023-03-31T02:54:57.809Z,65.25
2023-03-31T02:55:38.310Z,65.29
2023-03-31T02:56:30.254Z,65.42
2023-03-31T02:57:22.153Z,65.20
2023-03-31T02:58:14.094Z,65.16
2023-03-31T02:59:05.910Z,65.14
2023-03-31T02:59:58.522Z,65.12
2023-03-31T03:00:50.296Z,65.14
2023-03-31T03:01:42.343Z,65.11
2023-03-31T03:02:34.240Z,65.12
2023-03-31T03:03:26.187Z,65.14
2023-03-31T03:04:18.110Z,65.13
2023-03-31T03:04:59.095Z,65.14
2023-03-31T03:05:50.989Z,65.09
2023-03-31T03:06:42.923Z,65.09
2023-03-31T03:07:34.814Z,65.09
2023-03-31T03:08:26.752Z,65.28
2023-03-31T03:09:18.571Z,65.07
2023-03-31T03:10:10.459Z,64.94
2023-03-31T03:11:02.303Z,64.91
2023-03-31T03:11:46.744Z,64.91
2023-03-31T03:12:38.572Z,64.77
2023-03-31T03:13:30.371Z,64.77
2023-03-31T03:14:22.098Z,64.74
2023-03-31T03:15:13.924Z,64.74
2023-03-31T03:16:06.218Z,64.79
2023-03-31T03:16:58.276Z,64.82
2023-03-31T03:17:50.172Z,64.80
2023-03-31T03:18:42.151Z,64.79
2023-03-31T03:19:34.132Z,64.79
2023-03-31T03:20:32.052Z,64.74
2023-03-31T03:21:23.997Z,64.79
2023-03-31T03:22:15.846Z,64.77
2023-03-31T03:23:07.689Z,64.81
2023-03-31T03:23:59.575Z,64.74
2023-03-31T03:24:51.510Z,64.72
2023-03-31T03:25:43.359Z,64.71
2023-03-31T03:26:35.321Z,64.65
2023-03-31T03:27:27.092Z,64.70
2023-03-31T03:28:19.049Z,64.67
2023-03-31T03:28:53.724Z,64.69
2023-03-31T03:29:45.693Z,64.73
2023-03-31T03:30:26.678Z,64.76
2023-03-31T03:31:18.685Z,64.80
2023-03-31T03:32:10.607Z,64.97
2023-03-31T03:32:51.401Z,65.09
2023-03-31T03:33:43.240Z,65.11
2023-03-31T03:34:35.091Z,65.13
2023-03-31T03:35:06.742Z,65.14
2023-03-31T03:35:58.617Z,65.11
2023-03-31T03:36:50.501Z,65.23
2023-03-31T03:37:42.574Z,65.32
2023-03-31T03:38:34.508Z,65.30
2023-03-31T03:39:26.243Z,65.18
2023-03-31T03:40:18.373Z,65.11
2023-03-31T03:41:10.357Z,65.07
2023-03-31T03:42:02.306Z,65.04
2023-03-31T03:42:54.188Z,65.03
2023-03-31T03:43:46.075Z,65.01
2023-03-31T03:44:30.604Z,65.03
2023-03-31T03:45:22.544Z,65.21
2023-03-31T03:46:13.353Z,65.22
2023-03-31T03:47:05.354Z,65.26
2023-03-31T03:47:40.171Z,65.20
2023-03-31T03:48:32.145Z,65.15
2023-03-31T03:49:23.981Z,65.10
2023-03-31T03:50:16.529Z,65.16
2023-03-31T03:51:01.484Z,65.13
2023-03-31T03:51:53.367Z,65.10
2023-03-31T03:52:45.344Z,65.16
2023-03-31T03:53:37.349Z,65.16
2023-03-31T03:54:29.306Z,65.15
2023-03-31T03:55:21.285Z,65.20
2023-03-31T03:56:03.884Z,65.16
2023-03-31T03:56:56.081Z,65.12
2023-03-31T03:57:36.598Z,65.25
2023-03-31T03:58:28.575Z,65.24
2023-03-31T03:59:20.508Z,65.21
2023-03-31T04:00:12.222Z,65.18
2023-03-31T04:01:04.140Z,65.16
2023-03-31T04:01:55.963Z,65.26
2023-03-31T04:02:47.662Z,65.20
2023-03-31T04:03:39.686Z,65.15
2023-03-31T04:04:31.600Z,65.11
2023-03-31T04:05:23.505Z,65.11
2023-03-31T04:06:15.328Z,65.09
2023-03-31T04:07:07.276Z,65.05
2023-03-31T04:07:59.177Z,65.10
2023-03-31T04:08:51.039Z,65.08
2023-03-31T04:09:36.057Z,65.04
2023-03-31T04:10:28.042Z,65.03
2023-03-31T04:11:19.985Z,64.99
2023-03-31T04:12:11.954Z,64.96
2023-03-31T04:13:03.931Z,65.02
2023-03-31T04:13:44.245Z,64.94
2023-03-31T04:14:29.003Z,65.03
2023-03-31T04:15:20.883Z,65.10
2023-03-31T04:16:12.831Z,65.09
2023-03-31T04:17:04.702Z,65.08
2023-03-31T04:17:56.734Z,65.03
2023-03-31T04:18:33.929Z,65.02
2023-03-31T04:19:25.978Z,65.00
2023-03-31T04:20:18.090Z,64.99
2023-03-31T04:21:10.078Z,64.97
2023-03-31T04:21:54.849Z,64.97
2023-03-31T04:22:46.818Z,64.97
2023-03-31T04:23:33.042Z,65.06
2023-03-31T04:24:24.878Z,64.95
2023-03-31T04:25:16.916Z,64.89
2023-03-31T04:26:08.718Z,64.89
2023-03-31T04:26:46.450Z,64.86
2023-03-31T04:27:38.307Z,64.87
2023-03-31T04:28:30.130Z,64.88
2023-03-31T04:29:21.916Z,64.86
2023-03-31T04:30:16.837Z,64.86
2023-03-31T04:31:01.270Z,64.90
2023-03-31T04:31:53.186Z,64.87
2023-03-31T04:32:45.130Z,64.94
2023-03-31T04:33:37.186Z,64.91
2023-03-31T04:34:29.132Z,64.93
2023-03-31T04:35:21.014Z,64.94
2023-03-31T04:36:12.964Z,64.93
2023-03-31T04:37:04.911Z,64.88
2023-03-31T04:37:56.963Z,64.86
2023-03-31T04:38:48.891Z,64.93
2023-03-31T04:39:40.821Z,64.82
2023-03-31T04:40:15.932Z,64.75
2023-03-31T04:41:07.949Z,64.73
2023-03-31T04:41:59.985Z,64.89
2023-03-31T04:42:51.949Z,64.93
2023-03-31T04:43:43.996Z,64.66
2023-03-31T04:44:35.916Z,64.63
2023-03-31T04:45:27.997Z,64.63
2023-03-31T04:46:19.993Z,64.61
2023-03-31T04:47:12.263Z,64.63
2023-03-31T04:48:04.178Z,64.63
2023-03-31T04:48:55.991Z,64.72
2023-03-31T04:49:47.777Z,64.71
2023-03-31T04:50:39.722Z,64.68
2023-03-31T04:51:31.635Z,64.81
2023-03-31T04:52:23.571Z,64.78
2023-03-31T04:53:15.333Z,64.76
2023-03-31T04:53:56.440Z,64.76
2023-03-31T04:54:48.551Z,64.76
2023-03-31T04:55:40.487Z,64.79
2023-03-31T04:56:32.372Z,64.76
2023-03-31T04:57:24.262Z,64.79
2023-03-31T04:58:16.134Z,64.76
2023-03-31T04:59:07.916Z,64.80
2023-03-31T04:59:59.899Z,64.78
2023-03-31T05:00:51.789Z,64.84
2023-03-31T05:01:36.636Z,64.75
2023-03-31T05:02:28.656Z,64.67
2023-03-31T05:03:20.787Z,64.66
2023-03-31T05:04:12.892Z,64.64
2023-03-31T05:05:04.934Z,64.65
2023-03-31T05:05:56.774Z,64.63
2023-03-31T05:06:48.617Z,64.60
2023-03-31T05:07:40.560Z,64.58
2023-03-31T05:08:32.432Z,64.59
2023-03-31T05:09:24.359Z,64.60
2023-03-31T05:10:16.328Z,64.59
2023-03-31T05:11:01.269Z,64.58
2023-03-31T05:11:53.222Z,64.62
2023-03-31T05:12:45.088Z,64.58
2023-03-31T05:13:36.983Z,64.58
2023-03-31T05:14:28.961Z,64.56
2023-03-31T05:15:20.867Z,64.57
2023-03-31T05:16:12.785Z,64.54
2023-03-31T05:17:04.759Z,64.52
2023-03-31T05:17:56.814Z,64.53
2023-03-31T05:18:41.425Z,64.56
2023-03-31T05:19:33.350Z,64.55
2023-03-31T05:20:23.121Z,64.57
2023-03-31T05:21:14.893Z,64.61
2023-03-31T05:22:06.853Z,64.56
2023-03-31T05:22:54.644Z,64.61
2023-03-31T05:23:46.524Z,64.57
2023-03-31T05:24:38.454Z,64.58
2023-03-31T05:25:30.320Z,64.54
2023-03-31T05:26:22.303Z,64.54
2023-03-31T05:27:14.182Z,64.54
2023-03-31T05:27:56.179Z,64.44
2023-03-31T05:28:48.295Z,64.42
2023-03-31T05:29:32.683Z,64.39
2023-03-31T05:30:24.505Z,64.44
2023-03-31T05:31:16.316Z,64.40
2023-03-31T05:32:08.236Z,64.42
2023-03-31T05:33:00.269Z,64.39
2023-03-31T05:33:52.221Z,64.51
2023-03-31T05:34:32.666Z,64.46
2023-03-31T05:35:24.567Z,64.45
2023-03-31T05:36:16.401Z,64.44
2023-03-31T05:37:08.040Z,64.45
2023-03-31T05:37:49.893Z,64.49
2023-03-31T05:38:41.828Z,64.49
2023-03-31T05:39:32.497Z,64.43
2023-03-31T05:40:27.230Z,64.39
2023-03-31T05:41:12.778Z,64.36
2023-03-31T05:42:04.573Z,64.38
2023-03-31T05:42:56.610Z,64.34
2023-03-31T05:43:48.544Z,64.40
2023-03-31T05:44:40.463Z,64.51
2023-03-31T05:45:32.272Z,64.51
2023-03-31T05:46:24.446Z,64.38
2023-03-31T05:47:16.551Z,64.26
2023-03-31T05:48:01.137Z,64.33
2023-03-31T05:48:52.930Z,64.25
2023-03-31T05:49:45.098Z,64.16
2023-03-31T05:50:36.908Z,64.17
2023-03-31T05:51:28.736Z,64.10
2023-03-31T05:52:20.478Z,64.07
2023-03-31T05:53:12.280Z,64.07
2023-03-31T05:54:04.101Z,64.09
2023-03-31T05:54:41.505Z,64.14
2023-03-31T05:55:33.671Z,64.29
2023-03-31T05:56:25.537Z,64.07
2023-03-31T05:57:17.502Z,64.03
2023-03-31T05:58:09.276Z,63.96
2023-03-31T05:59:01.154Z,64.01
2023-03-31T05:59:53.085Z,63.99
2023-03-31T06:00:45.087Z,63.90
2023-03-31T06:01:40.189Z,63.89
2023-03-31T06:02:32.145Z,63.86
2023-03-31T06:03:24.159Z,63.84
2023-03-31T06:04:16.149Z,63.86
2023-03-31T06:05:07.924Z,63.87
2023-03-31T06:05:59.821Z,63.91
2023-03-31T06:06:51.724Z,63.93
2023-03-31T06:07:43.658Z,63.93
2023-03-31T06:08:35.488Z,63.91
2023-03-31T06:09:27.279Z,63.92
2023-03-31T06:10:11.900Z,63.96
2023-03-31T06:10:52.306Z,63.95
2023-03-31T06:11:44.278Z,63.93
2023-03-31T06:12:25.947Z,63.94
2023-03-31T06:13:17.596Z,63.92
2023-03-31T06:14:09.616Z,63.88
2023-03-31T06:15:01.395Z,63.83
2023-03-31T06:15:53.147Z,63.83
2023-03-31T06:16:35.307Z,63.84
2023-03-31T06:17:27.257Z,63.78
2023-03-31T06:18:19.104Z,63.76
2023-03-31T06:19:10.873Z,63.75
2023-03-31T06:20:09.916Z,63.90
2023-03-31T06:21:08.343Z,63.84
2023-03-31T06:22:00.659Z,63.94
2023-03-31T06:22:52.704Z,63.89
2023-03-31T06:23:44.566Z,63.92
2023-03-31T06:24:36.502Z,63.88
2023-03-31T06:25:32.402Z,63.90
2023-03-31T06:26:29.270Z,63.88
2023-03-31T06:27:21.072Z,63.98
2023-03-31T06:28:12.945Z,63.93
2023-03-31T06:29:04.824Z,63.93
2023-03-31T06:29:56.704Z,63.98
2023-03-31T06:30:48.584Z,63.97
2023-03-31T06:31:40.552Z,63.95
2023-03-31T06:32:32.707Z,64.00
2023-03-31T06:33:24.734Z,63.98
2023-03-31T06:34:17.826Z,64.01
2023-03-31T06:35:11.448Z,64.04
2023-03-31T06:36:03.358Z,64.07
2023-03-31T06:36:55.304Z,64.25
2023-03-31T06:37:47.184Z,64.10
2023-03-31T06:49:08.887Z,66.63
2023-03-31T06:49:42.282Z,66.51
2023-03-31T06:50:15.975Z,66.62
2023-03-31T06:50:50.225Z,66.61
2023-03-31T06:51:23.649Z,66.49
2023-03-31T06:51:57.124Z,66.41
2023-03-31T06:52:31.830Z,66.28
2023-03-31T06:53:06.189Z,66.20
2023-03-31T06:53:39.431Z,66.10
2023-03-31T06:54:12.839Z,66.02
2023-03-31T06:54:46.306Z,65.96
2023-03-31T06:55:19.659Z,65.93
2023-03-31T06:55:52.859Z,65.96
2023-03-31T06:56:27.688Z,66.03
2023-03-31T06:57:01.092Z,66.18
2023-03-31T06:57:34.696Z,66.08
2023-03-31T06:58:08.638Z,66.18
2023-03-31T06:58:42.126Z,66.12
2023-03-31T06:59:15.787Z,66.06
2023-03-31T06:59:49.202Z,66.05
2023-03-31T07:00:23.348Z,66.11
2023-03-31T07:00:56.772Z,66.09
2023-03-31T07:01:31.854Z,66.02
2023-03-31T07:02:05.537Z,65.98
2023-03-31T07:02:39.176Z,65.92
2023-03-31T07:03:13.905Z,65.81
2023-03-31T07:03:47.343Z,65.67
2023-03-31T07:04:21.685Z,65.57
2023-03-31T07:04:55.179Z,65.42
2023-03-31T07:05:29.103Z,65.27
2023-03-31T07:06:02.460Z,65.21
2023-03-31T07:06:36.246Z,65.17
2023-03-31T07:07:10.393Z,65.22
2023-03-31T07:07:45.792Z,65.27
2023-03-31T07:08:20.076Z,65.26
2023-03-31T07:08:53.303Z,65.36
2023-03-31T07:09:26.544Z,65.37
2023-03-31T07:10:00.152Z,65.42
2023-03-31T07:10:33.518Z,65.49
2023-03-31T07:11:07.214Z,65.39
2023-03-31T07:11:40.795Z,65.23
2023-03-31T07:12:14.293Z,65.38
2023-03-31T07:12:47.583Z,65.46
2023-03-31T07:13:21.071Z,65.16
2023-03-31T07:13:54.548Z,64.91
2023-03-31T07:14:27.925Z,64.87
2023-03-31T07:15:01.497Z,64.81
2023-03-31T07:15:34.962Z,64.85
2023-03-31T07:16:10.271Z,64.69
2023-03-31T07:16:43.566Z,64.54
2023-03-31T07:17:16.987Z,64.42
2023-03-31T07:17:54.305Z,64.37
2023-03-31T07:18:34.672Z,64.29
2023-03-31T07:19:11.314Z,64.10
2023-03-31T07:19:48.536Z,63.89
2023-03-31T07:20:21.924Z,63.65
2023-03-31T07:20:55.350Z,63.54
2023-03-31T07:21:28.794Z,63.49
2023-03-31T07:22:02.097Z,63.44
2023-03-31T07:22:35.463Z,63.46
2023-03-31T07:23:08.953Z,63.39
2023-03-31T07:23:42.428Z,63.28
2023-03-31T07:24:15.805Z,63.25
2023-03-31T07:24:49.173Z,63.23
2023-03-31T07:25:23.402Z,63.26
2023-03-31T07:25:56.896Z,63.25
2023-03-31T07:26:30.363Z,63.36
2023-03-31T07:27:03.523Z,63.40
2023-03-31T07:27:37.815Z,63.28
2023-03-31T07:28:12.057Z,63.19
2023-03-31T07:28:45.359Z,63.28
2023-03-31T07:29:18.896Z,63.31
2023-03-31T07:29:52.079Z,63.35
2023-03-31T07:30:25.496Z,63.30
2023-03-31T07:30:58.988Z,63.09
2023-03-31T07:31:32.784Z,63.05
2023-03-31T07:32:06.261Z,63.02
2023-03-31T07:32:41.525Z,63.04
2023-03-31T07:33:14.838Z,62.92
2023-03-31T07:33:48.720Z,62.82
2023-03-31T07:34:21.911Z,62.81
2023-03-31T07:34:55.409Z,62.80
2023-03-31T07:35:31.398Z,62.73
2023-03-31T07:36:12.723Z,62.68
2023-03-31T07:36:47.494Z,62.63
2023-03-31T07:37:21.860Z,62.67
2023-03-31T07:37:55.298Z,62.75
2023-03-31T07:38:28.442Z,62.85
2023-03-31T07:39:01.787Z,62.80
2023-03-31T07:39:37.244Z,62.80
2023-03-31T07:40:17.097Z,62.81
2023-03-31T07:40:58.694Z,62.87
2023-03-31T07:41:39.378Z,62.77
2023-03-31T07:42:12.785Z,62.57
2023-03-31T07:42:49.111Z,62.51
2023-03-31T07:43:22.899Z,62.49
2023-03-31T07:43:56.515Z,62.41
2023-03-31T07:44:29.968Z,62.50
2023-03-31T07:45:06.517Z,62.63
2023-03-31T07:45:40.874Z,62.71
2023-03-31T07:46:17.052Z,62.77
2023-03-31T07:46:50.367Z,62.90
2023-03-31T07:47:24.469Z,62.90
2023-03-31T07:47:58.079Z,62.89
2023-03-31T07:48:31.649Z,63.04
2023-03-31T07:49:04.917Z,63.04
2023-03-31T07:49:38.531Z,63.07
2023-03-31T07:50:13.372Z,63.20
2023-03-31T07:50:46.912Z,63.12
2023-03-31T07:51:23.071Z,62.99
2023-03-31T07:51:56.352Z,62.78
2023-03-31T07:52:29.569Z,62.57
2023-03-31T07:53:02.902Z,62.47
2023-03-31T07:53:37.000Z,62.46
2023-03-31T07:54:10.288Z,62.52
2023-03-31T07:54:43.482Z,62.44
2023-03-31T07:55:17.091Z,62.34
2023-03-31T07:55:50.742Z,62.13
2023-03-31T07:56:26.396Z,62.10
2023-03-31T07:57:02.170Z,62.10
2023-03-31T07:57:36.849Z,62.16
2023-03-31T07:58:12.152Z,62.23
2023-03-31T07:58:46.566Z,62.40
2023-03-31T07:59:20.705Z,62.47
2023-03-31T07:59:54.051Z,62.34
2023-03-31T08:00:27.841Z,62.24
2023-03-31T08:01:01.499Z,62.19
2023-03-31T08:01:35.143Z,62.25
2023-03-31T08:02:15.251Z,62.35
2023-03-31T08:02:49.196Z,62.37
2023-03-31T08:03:22.740Z,62.34
2023-03-31T08:03:56.288Z,62.29
2023-03-31T08:04:29.741Z,62.28
2023-03-31T08:05:03.926Z,62.47
2023-03-31T08:05:37.260Z,62.41
2023-03-31T08:06:10.802Z,62.24
2023-03-31T08:06:44.371Z,62.06
2023-03-31T08:07:18.161Z,62.11
2023-03-31T08:07:51.644Z,62.02
2023-03-31T08:08:25.024Z,62.09
2023-03-31T08:08:59.227Z,62.07
2023-03-31T08:09:32.416Z,62.12
2023-03-31T08:10:08.468Z,62.14
2023-03-31T08:10:41.625Z,62.19
2023-03-31T08:11:15.109Z,62.14
2023-03-31T08:11:49.253Z,61.93
2023-03-31T08:12:22.710Z,61.87
2023-03-31T08:12:56.399Z,61.83
2023-03-31T08:13:29.723Z,61.77
2023-03-31T08:14:03.067Z,61.67
2023-03-31T08:14:40.996Z,61.71
2023-03-31T08:15:14.826Z,61.77
2023-03-31T08:15:48.217Z,61.83
2023-03-31T08:16:21.841Z,61.83
2023-03-31T08:16:55.799Z,61.91
2023-03-31T08:17:29.122Z,62.00
2023-03-31T08:18:04.523Z,62.02
2023-03-31T08:18:37.888Z,62.03
2023-03-31T08:19:11.380Z,61.86
2023-03-31T08:19:44.877Z,61.80
2023-03-31T08:20:18.449Z,61.82
2023-03-31T08:20:51.560Z,61.90
2023-03-31T08:21:24.901Z,61.96
2023-03-31T08:21:58.391Z,62.32
2023-03-31T08:22:31.709Z,62.48
2023-03-31T08:23:09.194Z,62.33
2023-03-31T08:23:42.973Z,62.31
2023-03-31T08:24:16.349Z,62.42
2023-03-31T08:24:49.713Z,62.53
2023-03-31T08:25:24.255Z,62.40
2023-03-31T08:26:17.839Z,62.34
2023-03-31T08:26:51.620Z,62.18
2023-03-31T08:27:26.383Z,62.22
2023-03-31T08:27:59.725Z,62.14
2023-03-31T08:28:33.204Z,61.99
2023-03-31T08:29:06.967Z,61.77
2023-03-31T08:29:40.229Z,61.73
2023-03-31T08:30:14.235Z,61.75
2023-03-31T08:30:47.631Z,61.70
2023-03-31T08:31:26.744Z,61.45
2023-03-31T08:32:01.073Z,61.27
2023-03-31T08:32:35.389Z,60.99
2023-03-31T08:33:09.020Z,60.64
2023-03-31T08:33:42.592Z,60.39
2023-03-31T08:34:15.823Z,60.11
2023-03-31T08:34:49.185Z,59.98
2023-03-31T08:35:22.681Z,60.02
2023-03-31T08:35:56.230Z,59.87
2023-03-31T08:36:29.744Z,59.74
2023-03-31T08:37:04.518Z,59.83
2023-03-31T08:37:39.194Z,59.91
2023-03-31T08:38:12.859Z,60.07
2023-03-31T08:38:46.431Z,60.05
2023-03-31T08:39:19.625Z,59.90
2023-03-31T08:39:53.008Z,59.82
2023-03-31T08:40:28.961Z,59.83
2023-03-31T08:41:03.123Z,60.07
2023-03-31T08:42:03.469Z,60.07
2023-03-31T08:42:45.266Z,60.40
2023-03-31T08:43:27.870Z,60.32
2023-03-31T08:44:05.522Z,60.43
2023-03-31T08:44:54.460Z,60.89
2023-03-31T08:45:36.738Z,60.71
2023-03-31T08:46:16.049Z,60.69
2023-03-31T08:46:52.892Z,60.57
2023-03-31T08:47:30.018Z,60.71
2023-03-31T08:48:26.540Z,60.93
2023-03-31T08:49:01.580Z,60.87
2023-03-31T08:49:47.971Z,60.87
2023-03-31T08:50:25.740Z,60.83
2023-03-31T08:51:06.799Z,60.91
2023-03-31T08:51:44.068Z,61.01
2023-03-31T08:52:24.121Z,61.07
2023-03-31T08:53:16.663Z,61.32
2023-03-31T08:54:08.279Z,61.40
2023-03-31T08:54:47.550Z,61.10
2023-03-31T08:55:27.517Z,60.87
2023-03-31T08:56:01.759Z,60.85
2023-03-31T08:56:39.485Z,60.90
2023-03-31T08:57:31.932Z,61.05
2023-03-31T08:58:31.215Z,61.13
2023-03-31T08:59:04.807Z,61.19
2023-03-31T08:59:39.319Z,61.24
2023-03-31T09:00:19.024Z,61.24
2023-03-31T09:01:04.564Z,60.98
2023-03-31T09:02:04.722Z,60.82
2023-03-31T09:02:49.013Z,60.53
2023-03-31T09:04:08.257Z,60.80
2023-03-31T09:05:02.599Z,61.02
2023-03-31T09:05:59.975Z,61.11
2023-03-31T09:06:44.461Z,61.28
2023-03-31T09:08:03.559Z,61.14
2023-03-31T09:08:39.345Z,61.12
2023-03-31T09:09:31.136Z,61.41
2023-03-31T09:10:13.248Z,61.53
2023-03-31T09:11:00.138Z,61.58
2023-03-31T09:11:42.765Z,61.47
2023-03-31T09:12:51.293Z,61.25
2023-03-31T09:13:45.267Z,61.33
2023-03-31T09:14:33.078Z,61.57
2023-03-31T09:15:17.955Z,61.44
2023-03-31T09:15:56.136Z,61.04
2023-03-31T09:16:57.210Z,60.86
2023-03-31T09:17:46.588Z,60.95
2023-03-31T09:18:29.342Z,60.95
2023-03-31T09:19:03.613Z,60.87
2023-03-31T09:19:41.941Z,60.70
2023-03-31T09:20:23.466Z,60.90
2023-03-31T09:21:14.522Z,61.12
2023-03-31T09:21:53.208Z,61.20
2023-03-31T09:22:31.770Z,61.09
2023-03-31T09:23:33.553Z,61.16
2023-03-31T09:24:09.820Z,60.98
2023-03-31T09:25:10.568Z,60.93
2023-03-31T09:25:46.072Z,60.69
2023-03-31T09:26:28.870Z,60.76
2023-03-31T09:27:13.137Z,60.56
2023-03-31T09:27:48.002Z,60.56
2023-03-31T09:28:27.467Z,60.64
2023-03-31T09:29:07.007Z,60.78
2023-03-31T09:30:01.917Z,60.88
2023-03-31T09:30:38.364Z,60.75
2023-03-31T09:31:20.071Z,60.45
2023-03-31T09:31:54.806Z,60.37
2023-03-31T09:32:32.961Z,60.35
2023-03-31T09:33:17.820Z,60.37
2023-03-31T09:33:55.831Z,60.43
2023-03-31T09:34:32.489Z,60.75
2023-03-31T09:35:22.066Z,60.60
2023-03-31T09:35:55.558Z,60.59
2023-03-31T09:36:29.159Z,60.64
2023-03-31T09:37:02.842Z,60.40
2023-03-31T09:37:36.227Z,60.26
2023-03-31T09:38:14.232Z,59.94
2023-03-31T09:38:48.561Z,59.80
2023-03-31T09:39:22.263Z,59.74
2023-03-31T09:39:55.689Z,59.86
2023-03-31T09:40:30.010Z,59.83
2023-03-31T09:41:05.697Z,59.67
2023-03-31T09:41:42.905Z,59.62
2023-03-31T09:42:16.492Z,59.72
2023-03-31T09:42:57.290Z,60.24
2023-03-31T09:43:32.165Z,60.15
2023-03-31T09:44:07.105Z,60.04
2023-03-31T09:44:44.882Z,59.70
2023-03-31T09:45:20.354Z,59.49
2023-03-31T09:46:08.587Z,59.02
2023-03-31T09:46:43.246Z,58.52
2023-03-31T09:47:39.318Z,58.74
2023-03-31T09:48:17.190Z,58.94
2023-03-31T09:49:18.404Z,58.94
2023-03-31T09:49:53.716Z,58.91
2023-03-31T09:50:30.492Z,59.15
2023-03-31T09:51:07.398Z,59.57
2023-03-31T09:51:46.569Z,59.55
2023-03-31T09:52:37.652Z,59.90
2023-03-31T09:53:19.655Z,60.01
2023-03-31T09:53:56.113Z,60.36
2023-03-31T09:54:37.384Z,61.03
2023-03-31T09:55:28.432Z,61.03
2023-03-31T09:56:09.023Z,61.12
2023-03-31T09:56:42.565Z,61.26
2023-03-31T09:57:34.103Z,61.58